.
WxDataArchive / Data Records for 2015-07-18
2015-07-17 July 2015 2015-07-19

Data Records for Saturday, 18 July 2015

Time	Temp	Chill	HIndex	Humid	Dewpt	 Wind 	HiWind	WindDir	Rain 	Barom
-----	----	-----	------	-----	-----	------	------	-------	-----	-----
00:00	74.2	74.2	74.2	77	66.5	0	2	338	0.00	29.769 
00:05	74.2	74.2	74.2	77	66.5	2	4	338	0.00	29.769 
00:10	74.2	74.2	74.2	77	66.5	2	6	292	0.00	29.769 
00:15	74.4	74.4	74.4	77	66.7	1	5	315	0.00	29.809 
00:20	74.4	74.4	74.4	77	66.7	0	1	315	0.00	29.809 
00:25	74.2	74.2	74.2	76	66.1	0	1	315	0.00	29.809 
00:30	74.2	74.2	74.2	76	66.1	0	1	315	0.00	29.815 
00:35	74.2	74.2	74.2	76	66.1	0	0	---	0.00	29.815 
00:40	74.0	74.0	74.0	77	66.3	0	0	---	0.00	29.815 
00:45	73.9	73.9	73.9	77	66.2	0	1	315	0.00	29.819 
00:50	73.7	73.7	73.7	77	66.0	0	0	---	0.00	29.819 
00:55	73.5	73.5	73.5	78	66.2	0	0	---	0.00	29.819 
01:00	73.2	73.2	73.2	79	66.3	0	0	---	0.00	29.817 
01:05	72.8	72.8	72.8	80	66.3	0	0	---	0.00	29.817 
01:10	72.7	72.7	72.7	80	66.2	0	1	315	0.00	29.817 
01:15	72.5	72.5	72.5	81	66.3	0	0	---	0.00	29.813 
01:20	72.3	72.3	72.3	81	66.1	0	0	---	0.00	29.813 
01:25	72.1	72.1	72.1	81	65.9	0	0	---	0.00	29.813 
01:30	72.1	72.1	72.1	82	66.3	0	1	315	0.00	29.815 
01:35	72.1	72.1	72.1	82	66.3	0	0	---	0.00	29.815 
01:40	72.1	72.1	72.1	82	66.3	0	0	---	0.00	29.815 
01:45	72.0	72.0	72.0	83	66.5	0	1	315	0.00	29.828 
01:50	72.1	72.1	72.1	83	66.6	0	0	---	0.00	29.828 
01:55	72.1	72.1	72.1	83	66.6	0	1	315	0.00	29.828 
02:00	72.1	72.1	72.1	83	66.6	0	1	315	0.00	29.815 
02:05	72.3	72.3	72.3	83	66.8	0	1	315	0.00	29.815 
02:10	72.3	72.3	72.3	84	67.2	0	1	315	0.00	29.815 
02:15	72.3	72.3	72.3	84	67.2	0	0	---	0.00	29.826 
02:20	72.3	72.3	72.3	84	67.2	0	0	---	0.00	29.826 
02:25	72.1	72.1	72.1	84	67.0	0	1	315	0.00	29.826 
02:30	72.1	72.1	72.1	84	67.0	0	1	315	0.00	29.829 
02:35	72.1	72.1	72.1	84	67.0	0	0	---	0.00	29.829 
02:40	72.1	72.1	72.1	84	67.0	0	0	---	0.00	29.829 
02:45	72.1	72.1	72.1	83	66.6	0	1	315	0.00	29.821 
02:50	72.1	72.1	72.1	83	66.6	0	2	315	0.00	29.821 
02:55	72.1	72.1	72.1	83	66.6	0	1	315	0.00	29.821 
03:00	72.1	72.1	72.1	83	66.6	0	1	315	0.00	29.829 
03:05	72.0	72.0	72.0	83	66.5	0	1	315	0.00	29.829 
03:10	72.0	72.0	72.0	83	66.5	0	0	---	0.00	29.829 
03:15	72.0	72.0	72.0	83	66.5	0	1	315	0.00	29.831 
03:20	71.8	71.8	71.8	83	66.3	0	1	315	0.00	29.831 
03:25	71.8	71.8	71.8	83	66.3	0	1	315	0.00	29.831 
03:30	71.8	71.8	71.8	83	66.3	0	1	315	0.00	29.833 
03:35	71.6	71.6	71.6	83	66.2	0	1	315	0.00	29.833 
03:40	71.6	71.6	71.6	84	66.5	0	1	315	0.00	29.833 
03:45	71.6	71.6	71.6	84	66.5	0	1	315	0.00	29.833 
03:50	71.5	71.5	71.5	84	66.4	0	1	315	0.00	29.833 
03:55	71.5	71.5	71.5	84	66.4	0	1	315	0.00	29.833 
04:00	71.5	71.5	71.5	84	66.4	0	0	---	0.00	29.840 
04:05	71.3	71.3	71.3	84	66.2	0	1	315	0.00	29.840 
04:10	71.3	71.3	71.3	84	66.2	0	1	315	0.00	29.840 
04:15	71.3	71.3	71.3	84	66.2	0	2	315	0.00	29.839 
04:20	71.3	71.3	71.3	84	66.2	0	1	315	0.00	29.839 
04:25	71.3	71.3	71.3	84	66.2	0	0	---	0.00	29.839 
04:30	71.1	71.1	71.1	84	66.0	0	1	315	0.00	29.840 
04:35	71.1	71.1	71.1	84	66.0	0	1	315	0.00	29.840 
04:40	70.9	70.9	70.9	84	65.8	0	1	315	0.00	29.840 
04:45	70.9	70.9	70.9	84	65.8	0	1	315	0.00	29.834 
04:50	70.9	70.9	70.9	84	65.8	0	1	315	0.00	29.834 
04:55	70.9	70.9	70.9	84	65.8	0	1	315	0.00	29.834 
05:00	70.8	70.8	70.8	84	65.7	0	0	---	0.00	29.832 
05:05	70.8	70.8	70.8	85	66.1	0	2	315	0.00	29.832 
05:10	70.8	70.8	70.8	85	66.1	0	1	315	0.00	29.832 
05:15	70.9	70.9	70.9	84	65.8	0	1	315	0.00	29.833 
05:20	70.9	70.9	70.9	84	65.8	0	1	315	0.00	29.833 
05:25	70.9	70.9	70.9	84	65.8	0	1	315	0.00	29.833 
05:30	70.9	70.9	70.9	84	65.8	0	0	---	0.00	29.829 
05:35	70.9	70.9	70.9	84	65.8	0	1	315	0.00	29.829 
05:40	70.9	70.9	70.9	84	65.8	0	1	315	0.00	29.829 
05:45	70.9	70.9	70.9	84	65.8	0	0	---	0.00	29.832 
05:50	70.9	70.9	70.9	85	66.2	0	1	315	0.00	29.832 
05:55	70.9	70.9	70.9	85	66.2	0	0	---	0.00	29.832 
06:00	70.9	70.9	70.9	85	66.2	0	1	315	0.00	29.836 
06:05	70.9	70.9	70.9	85	66.2	0	1	315	0.00	29.836 
06:10	70.9	70.9	70.9	85	66.2	0	1	315	0.00	29.836 
06:15	70.9	70.9	70.9	85	66.2	0	0	---	0.00	29.840 
06:20	70.9	70.9	70.9	85	66.2	0	0	---	0.00	29.840 
06:25	70.9	70.9	70.9	85	66.2	0	1	315	0.00	29.840 
06:30	70.9	70.9	70.9	85	66.2	0	1	315	0.00	29.844 
06:35	70.9	70.9	70.9	85	66.2	0	1	315	0.00	29.844 
06:40	70.9	70.9	70.9	85	66.2	0	0	---	0.00	29.844 
06:45	70.9	70.9	70.9	85	66.2	0	1	315	0.00	29.849 
06:50	70.9	70.9	70.9	85	66.2	0	1	315	0.00	29.849 
06:55	70.9	70.9	70.9	85	66.2	0	2	315	0.00	29.849 
07:00	71.1	71.1	71.1	86	66.7	0	1	315	0.00	29.848 
07:05	71.1	71.1	71.1	86	66.7	0	2	315	0.00	29.848 
07:10	71.1	71.1	71.1	86	66.7	0	1	315	0.00	29.848 
07:15	71.1	71.1	71.1	86	66.7	0	1	315	0.00	29.851 
07:20	71.3	71.3	71.3	86	66.9	0	1	315	0.00	29.851 
07:25	71.5	71.5	71.5	87	67.4	0	1	315	0.00	29.851 
07:30	71.6	71.6	71.6	87	67.5	0	3	315	0.00	29.850 
07:35	71.8	71.8	71.8	87	67.7	0	2	315	0.00	29.850 
07:40	72.1	72.1	72.1	87	68.0	1	2	315	0.00	29.850 
07:45	72.3	72.3	72.3	86	67.9	0	3	315	0.00	29.853 
07:50	72.7	72.7	72.7	86	68.3	0	2	315	0.00	29.853 
07:55	72.8	72.8	72.8	86	68.4	1	3	315	0.00	29.853 
08:00	73.2	73.2	73.2	85	68.4	1	2	315	0.00	29.851 
08:05	73.3	73.3	73.3	85	68.5	0	2	315	0.00	29.851 
08:10	73.7	73.7	73.7	84	68.6	1	3	315	0.00	29.851 
08:15	73.9	73.9	73.9	84	68.7	0	2	315	0.00	29.859 
08:20	74.0	74.0	74.0	84	68.8	1	2	315	0.00	29.859 
08:25	74.2	74.2	74.2	84	69.0	1	3	315	0.00	29.859 
08:30	74.6	74.6	74.6	84	69.4	1	3	315	0.00	29.864 
08:35	74.6	74.6	74.6	83	69.1	1	4	315	0.00	29.864 
08:40	74.7	74.7	74.7	83	69.2	1	3	315	0.00	29.864 
08:45	74.9	74.9	74.9	83	69.4	0	2	315	0.00	29.866 
08:50	75.1	75.1	75.2	84	69.9	0	2	315	0.00	29.866 
08:55	75.3	75.3	75.5	84	70.1	0	1	315	0.00	29.866 
09:00	75.4	75.4	75.8	83	69.9	0	2	315	0.00	29.871 
09:05	75.6	75.6	76.1	83	70.1	0	2	315	0.00	29.871 
09:10	76.1	76.1	76.9	83	70.5	0	2	315	0.00	29.871 
09:15	76.5	76.5	77.7	82	70.6	0	2	315	0.00	29.864 
09:20	76.8	76.8	78.2	82	70.9	1	3	315	0.00	29.864 
09:25	77.2	77.2	78.9	82	71.3	0	2	315	0.00	29.864 
09:30	77.7	77.7	79.8	81	71.4	0	2	315	0.00	29.866 
09:35	78.1	78.1	80.5	81	71.8	0	3	315	0.00	29.866 
09:40	78.5	78.5	81.2	80	71.8	0	2	315	0.00	29.866 
09:45	78.8	78.8	81.7	79	71.7	1	3	315	0.00	29.864 
09:50	79.2	79.2	82.5	79	72.1	0	2	315	0.00	29.864 
09:55	79.6	79.6	83.3	79	72.5	1	2	315	0.00	29.864 
10:00	79.6	79.6	83.2	78	72.1	1	3	315	0.00	29.864 
10:05	79.8	79.8	83.7	79	72.7	1	2	315	0.00	29.864 
10:10	80.3	80.3	84.7	79	73.2	0	3	315	0.00	29.864 
10:15	80.7	80.7	85.4	78	73.2	0	2	315	0.00	29.855 
10:20	81.2	81.2	86.5	78	73.7	0	1	315	0.00	29.855 
10:25	81.6	81.6	87.2	77	73.7	0	1	315	0.00	29.855 
10:30	82.0	82.0	87.8	76	73.7	0	2	315	0.00	29.858 
10:35	82.2	82.2	88.3	76	73.9	0	1	315	0.00	29.858 
10:40	82.4	82.4	88.4	75	73.7	0	2	315	0.00	29.858 
10:45	82.4	82.4	88.7	76	74.1	1	3	315	0.00	29.855 
10:50	82.8	82.8	89.9	77	74.8	0	1	315	0.00	29.855 
10:55	83.4	83.4	90.7	75	74.6	0	1	315	0.00	29.855 
11:00	83.4	83.4	90.7	75	74.6	1	3	315	0.00	29.847 
11:05	83.6	83.6	90.9	74	74.4	0	1	315	0.00	29.847 
11:10	83.8	83.8	91.7	75	75.0	0	2	315	0.00	29.847 
11:15	84.5	84.5	93.4	75	75.7	0	1	315	0.00	29.845 
11:20	85.3	85.3	94.2	72	75.2	0	1	315	0.00	29.845 
11:25	86.3	86.3	96.7	72	76.2	0	2	315	0.00	29.845 
11:30	86.7	86.7	96.8	70	75.7	0	2	315	0.00	29.843 
11:35	87.6	87.6	98.6	69	76.1	0	1	315	0.00	29.843 
11:40	88.2	88.2	100.2	69	76.7	0	1	315	0.00	29.843 
11:45	88.4	88.4	99.6	67	76.0	0	2	315	0.00	29.839 
11:50	88.6	88.6	100.7	68	76.6	0	2	315	0.00	29.839 
11:55	88.6	88.6	100.7	68	76.6	0	1	315	0.00	29.839 
12:00	89.0	89.0	101.8	68	77.0	0	2	0	0.00	29.830 
12:05	89.5	89.5	101.9	66	76.6	0	2	0	0.00	29.830 
12:10	89.7	89.7	102.5	66	76.8	0	2	22	0.00	29.830 
12:15	89.0	89.0	100.6	66	76.1	0	1	0	0.00	29.839 
12:20	89.0	89.0	101.8	68	77.0	0	1	0	0.00	29.839 
12:25	89.0	89.0	101.8	68	77.0	1	3	0	0.00	29.839 
12:30	89.0	89.0	101.2	67	76.6	0	1	338	0.00	29.840 
12:35	88.8	88.8	100.1	66	75.9	1	3	338	0.00	29.840 
12:40	88.6	88.6	100.7	68	76.6	0	2	338	0.00	29.840 
12:45	88.6	88.6	101.9	70	77.5	0	1	338	0.00	29.848 
12:50	88.8	88.8	101.8	69	77.3	0	1	338	0.00	29.848 
12:55	88.8	88.8	100.7	67	76.4	1	4	315	0.00	29.848 
13:00	88.6	88.6	99.6	66	75.7	1	3	315	0.00	29.862 
13:05	88.4	88.4	100.2	68	76.5	0	2	315	0.00	29.862 
13:10	89.0	89.0	101.2	67	76.6	0	2	315	0.00	29.862 
13:15	89.3	89.3	102.0	67	76.9	1	3	112	0.00	29.869 
13:20	89.5	89.5	102.5	67	77.1	0	1	45	0.00	29.869 
13:25	89.9	89.9	103.0	66	77.0	0	2	338	0.00	29.869 
13:30	89.9	89.9	101.8	64	76.1	1	3	292	0.00	29.870 
13:35	89.7	89.7	101.3	64	75.9	0	3	292	0.00	29.870 
13:40	89.0	89.0	100.6	66	76.1	0	2	292	0.00	29.870 
13:45	87.8	87.8	94.3	59	71.7	1	11	112	0.00	29.872 
13:50	84.7	84.7	88.4	59	68.8	1	4	90	0.00	29.872 
13:55	82.0	82.0	85.0	63	68.1	1	4	338	0.00	29.872 
14:00	80.1	80.1	82.9	68	68.6	2	5	292	0.00	29.890 
14:05	78.8	78.8	81.3	72	69.0	2	10	90	0.00	29.890 
14:10	77.2	77.2	78.9	79	70.2	2	8	68	0.06	29.890 
14:15	75.3	75.3	75.5	84	70.1	4	10	90	0.11	29.882 
14:20	73.7	73.7	73.7	88	69.9	3	10	90	0.03	29.882 
14:25	73.2	73.2	73.2	89	69.8	0	2	90	0.02	29.882 
14:30	73.2	73.2	73.2	90	70.1	0	2	90	0.00	29.902 
14:35	72.8	72.8	72.8	90	69.7	2	6	90	0.00	29.902 
14:40	72.7	72.7	72.7	91	69.9	0	3	112	0.00	29.902 
14:45	72.8	72.8	72.8	92	70.3	1	4	135	0.00	29.902 
14:50	73.0	73.0	73.0	92	70.5	1	3	135	0.00	29.902 
14:55	73.5	73.5	73.5	93	71.3	1	3	90	0.00	29.902 
15:00	74.6	74.6	74.6	94	72.8	0	1	90	0.00	29.871 
15:05	75.1	75.1	73.9	92	72.6	2	5	90	0.00	29.871 
15:10	75.3	75.3	74.3	92	72.8	1	6	68	0.00	29.871 
15:15	75.6	75.6	75.2	90	72.4	0	2	158	0.00	29.880 
15:20	75.8	75.8	75.6	90	72.6	0	1	158	0.00	29.880 
15:25	76.0	76.0	76.0	90	72.8	0	3	112	0.00	29.880 
15:30	76.5	76.5	77.2	89	73.0	0	1	112	0.00	29.864 
15:35	76.8	76.8	77.9	87	72.6	1	4	112	0.00	29.864 
15:40	77.4	77.4	79.2	85	72.5	0	2	158	0.00	29.864 
15:45	78.3	78.3	81.0	85	73.4	0	1	158	0.00	29.861 
15:50	79.4	79.4	83.5	85	74.5	0	0	---	0.00	29.861 
15:55	79.9	79.9	84.3	82	73.9	0	3	135	0.00	29.861 
16:00	80.9	80.9	86.2	80	74.1	0	2	135	0.00	29.848 
16:05	82.0	82.0	88.5	79	74.8	0	1	135	0.00	29.848 
16:10	82.8	82.8	90.2	78	75.2	0	1	135	0.00	29.848 
16:15	83.8	83.8	92.0	76	75.4	0	2	135	0.00	29.834 
16:20	84.3	84.3	92.2	73	74.7	0	2	135	0.00	29.834 
16:25	85.1	85.1	93.3	71	74.6	0	1	135	0.00	29.834 
16:30	85.9	85.9	95.3	71	75.4	0	1	135	0.00	29.814 
16:35	85.9	85.9	93.6	67	73.6	0	2	135	0.00	29.814 
16:40	85.7	85.7	92.7	66	73.0	0	2	135	0.00	29.814 
16:45	85.7	85.7	92.3	65	72.5	1	2	135	0.00	29.821 
16:50	85.9	85.9	93.6	67	73.6	0	2	90	0.00	29.821 
16:55	85.7	85.7	93.9	69	74.3	0	2	90	0.00	29.821 
17:00	85.7	85.7	93.1	67	73.4	1	3	112	0.00	29.829 
17:05	85.7	85.7	93.9	69	74.3	1	5	112	0.00	29.829 
17:10	85.1	85.1	92.6	69	73.8	0	3	112	0.00	29.829 
17:15	84.7	84.7	91.7	69	73.4	0	2	112	0.00	29.833 
17:20	84.1	84.1	90.7	70	73.2	1	4	112	0.00	29.833 
17:25	84.1	84.1	91.4	72	74.1	1	2	158	0.00	29.833 
17:30	84.1	84.1	90.4	69	72.8	1	3	112	0.00	29.839 
17:35	84.0	84.0	90.2	69	72.7	1	4	90	0.00	29.839 
17:40	83.8	83.8	89.4	68	72.1	0	1	90	0.00	29.839 
17:45	83.8	83.8	89.7	69	72.5	0	3	90	0.00	29.830 
17:50	83.4	83.4	88.9	69	72.1	1	4	90	0.00	29.830 
17:55	83.2	83.2	88.5	69	71.9	1	4	90	0.00	29.830 
18:00	83.0	83.0	88.1	69	71.8	0	2	112	0.00	29.822 
18:05	83.0	83.0	87.6	67	70.9	0	3	135	0.00	29.822 
18:10	82.8	82.8	87.0	66	70.3	1	4	112	0.00	29.822 
18:15	82.8	82.8	87.2	67	70.7	0	1	158	0.00	29.828 
18:20	82.8	82.8	87.0	66	70.3	0	2	158	0.00	29.828 
18:25	82.8	82.8	87.2	67	70.7	0	2	112	0.00	29.828 
18:30	82.6	82.6	86.9	67	70.5	0	1	112	0.00	29.814 
18:35	82.6	82.6	87.1	68	70.9	0	1	112	0.00	29.814 
18:40	82.4	82.4	86.7	68	70.8	0	1	112	0.00	29.814 
18:45	82.2	82.2	86.6	69	71.0	0	1	135	0.00	29.803 
18:50	82.2	82.2	86.8	70	71.4	0	1	135	0.00	29.803 
18:55	82.0	82.0	86.7	71	71.6	0	1	135	0.00	29.803 
19:00	81.8	81.8	86.3	71	71.5	0	1	135	0.00	29.806 
19:05	81.6	81.6	86.1	72	71.7	0	1	135	0.00	29.806 
19:10	81.4	81.4	85.7	72	71.5	0	1	135	0.00	29.806 
19:15	81.2	81.2	85.3	72	71.3	0	1	135	0.00	29.828 
19:20	81.1	81.1	85.3	73	71.6	0	1	135	0.00	29.828 
19:25	81.1	81.1	85.3	73	71.6	0	0	---	0.00	29.828 
19:30	80.9	80.9	85.1	74	71.8	0	1	135	0.00	29.832 
19:35	80.9	80.9	85.1	74	71.8	0	1	135	0.00	29.832 
19:40	80.7	80.7	84.9	75	72.0	0	0	---	0.00	29.832 
19:45	80.5	80.5	84.5	75	71.8	0	0	---	0.00	29.834 
19:50	80.5	80.5	84.8	77	72.6	0	1	135	0.00	29.834 
19:55	80.1	80.1	84.2	78	72.6	0	3	135	0.01	29.834 
20:00	79.4	79.4	82.9	79	72.3	0	2	270	0.01	29.816 
20:05	78.6	78.6	81.5	82	72.6	1	3	270	0.01	29.816 
20:10	77.9	77.9	80.2	83	72.3	0	3	270	0.00	29.816 
20:15	77.0	77.0	78.5	83	71.4	0	2	270	0.00	29.854 
20:20	76.0	76.0	76.8	82	70.1	0	2	270	0.00	29.854 
20:25	75.3	75.3	75.9	81	69.1	2	6	270	0.00	29.854 
20:30	74.2	74.2	74.2	81	68.0	3	7	270	0.00	29.884 
20:35	73.5	73.5	73.5	83	68.0	3	6	292	0.01	29.884 
20:40	73.0	73.0	73.0	86	68.6	4	10	292	0.02	29.884 
20:45	72.5	72.5	72.5	88	68.7	5	10	270	0.03	29.884 
20:50	72.1	72.1	72.1	89	68.7	1	5	292	0.04	29.884 
20:55	71.8	71.8	71.8	89	68.4	0	0	---	0.03	29.884 
21:00	71.6	71.6	71.6	90	68.5	1	2	292	0.01	29.859 
21:05	71.6	71.6	71.6	91	68.8	1	3	292	0.00	29.859 
21:10	71.6	71.6	71.6	92	69.1	0	2	292	0.00	29.859 
21:15	71.6	71.6	71.6	92	69.1	0	3	292	0.00	29.874 
21:20	71.5	71.5	71.5	92	69.0	0	2	292	0.00	29.874 
21:25	71.5	71.5	71.5	92	69.0	1	3	292	0.02	29.874 
21:30	71.3	71.3	71.3	92	68.8	0	4	270	0.01	29.878 
21:35	71.1	71.1	71.1	93	69.0	0	2	270	0.00	29.878 
21:40	71.1	71.1	71.1	93	69.0	0	2	270	0.00	29.878 
21:45	70.9	70.9	70.9	93	68.8	0	1	270	0.00	29.873 
21:50	70.8	70.8	70.8	93	68.7	0	1	270	0.00	29.873 
21:55	70.6	70.6	70.6	93	68.5	0	1	270	0.00	29.873 
22:00	70.4	70.4	70.4	93	68.3	0	1	270	0.00	29.874 
22:05	70.4	70.4	70.4	93	68.3	0	0	---	0.00	29.874 
22:10	70.3	70.3	70.3	93	68.2	0	2	270	0.00	29.874 
22:15	70.4	70.4	70.4	94	68.6	0	2	270	0.00	29.872 
22:20	70.4	70.4	70.4	94	68.6	0	2	270	0.00	29.872 
22:25	70.6	70.6	70.6	94	68.8	0	1	270	0.00	29.872 
22:30	70.6	70.6	70.6	94	68.8	0	1	270	0.00	29.875 
22:35	70.6	70.6	70.6	94	68.8	0	1	270	0.00	29.875 
22:40	70.6	70.6	70.6	94	68.8	0	0	---	0.00	29.875 
22:45	70.6	70.6	70.6	94	68.8	0	1	270	0.00	29.866 
22:50	70.6	70.6	70.6	94	68.8	0	1	270	0.00	29.866 
22:55	70.8	70.8	70.8	94	69.0	0	1	270	0.00	29.866 
23:00	70.6	70.6	70.6	94	68.8	0	0	---	0.00	29.863 
23:05	70.6	70.6	70.6	94	68.8	0	1	270	0.00	29.863 
23:10	70.6	70.6	70.6	94	68.8	0	1	270	0.00	29.863 
23:15	70.6	70.6	70.6	95	69.1	0	1	270	0.00	29.861 
23:20	70.4	70.4	70.4	94	68.6	0	1	270	0.00	29.861 
23:25	70.4	70.4	70.4	95	68.9	0	1	270	0.00	29.861 
23:30	70.4	70.4	70.4	94	68.6	0	1	270	0.00	29.861 
23:35	70.3	70.3	70.3	94	68.5	0	3	270	0.00	29.861 
23:40	70.3	70.3	70.3	94	68.5	0	1	270	0.00	29.861 
23:45	70.3	70.3	70.3	95	68.8	0	3	270	0.00	29.861 
23:50	70.3	70.3	70.3	95	68.8	0	2	270	0.00	29.861 
23:55	70.4	70.4	70.4	95	68.9	0	2	292	0.00	29.861 

CoCoRaHS
IN-AL-39
A2 Web Hosting
Creative Commons License
GoDaddy
search engine by freefind advanced

loaded 2018-11-16 10:39:11 • last modified 2010-11-18 10:43:29
Privacy PolicyDisclaimer
• wx.awcolley.com is powered by PmWiki v.2002016 •
• all content (unless otherwise noted) © 2018 A W Colley